createdAt,value
2022-12-15T00:00:09.645Z,-10
2022-12-15T00:03:10.483Z,-10
2022-12-15T00:06:09.577Z,-9.9
2022-12-15T00:09:19.838Z,-10
2022-12-15T00:12:09.511Z,-10.1
2022-12-15T00:15:09.569Z,-10
2022-12-15T00:18:09.554Z,-10
2022-12-15T00:21:09.526Z,-9.9
2022-12-15T00:24:09.598Z,-10
2022-12-15T00:27:09.521Z,-10
2022-12-15T00:30:09.580Z,-10.1
2022-12-15T00:33:09.524Z,-10.2
2022-12-15T00:36:09.611Z,-10.3
2022-12-15T00:39:13.119Z,-10.3
2022-12-15T00:42:09.564Z,-10.4
2022-12-15T00:45:09.511Z,-10.3
2022-12-15T00:48:09.578Z,-10.3
2022-12-15T00:51:09.521Z,-10.3
2022-12-15T00:54:13.265Z,-10.3
2022-12-15T00:57:09.551Z,-10.3
2022-12-15T01:00:09.741Z,-10.3
2022-12-15T01:03:10.915Z,-10.4
2022-12-15T01:06:09.556Z,-10.4
2022-12-15T01:09:09.528Z,-10.4
2022-12-15T01:12:09.532Z,-10.5
2022-12-15T01:15:09.555Z,-10.6
2022-12-15T01:18:09.573Z,-10.6
2022-12-15T01:21:09.593Z,-10.6
2022-12-15T01:24:09.565Z,-10.6
2022-12-15T01:27:09.542Z,-10.5
2022-12-15T01:30:09.636Z,-10.5
2022-12-15T01:33:09.582Z,-10.5
2022-12-15T01:36:09.552Z,-10.6
2022-12-15T01:39:09.634Z,-10.6
2022-12-15T01:42:09.600Z,-10.5
2022-12-15T01:45:09.572Z,-10.5
2022-12-15T01:48:09.583Z,-10.4
2022-12-15T01:51:09.649Z,-10.4
2022-12-15T01:54:09.579Z,-10.4
2022-12-15T01:57:09.592Z,-10.6
2022-12-15T02:00:09.573Z,-10.6
2022-12-15T02:03:10.318Z,-10.6
2022-12-15T02:06:09.626Z,-10.8
2022-12-15T02:09:09.582Z,-10.8
2022-12-15T02:12:09.578Z,-10.8
2022-12-15T02:15:09.654Z,-10.8
2022-12-15T02:18:09.537Z,-10.8
2022-12-15T02:21:09.580Z,-10.6
2022-12-15T02:24:09.557Z,-10.6
2022-12-15T02:27:09.584Z,-10.7
2022-12-15T02:30:09.538Z,-10.7
2022-12-15T02:33:09.561Z,-10.8
2022-12-15T02:36:09.580Z,-10.8
2022-12-15T02:39:09.560Z,-10.7
2022-12-15T02:42:09.544Z,-10.7
2022-12-15T02:45:09.537Z,-10.8
2022-12-15T02:48:09.627Z,-10.8
2022-12-15T02:51:09.474Z,-10.9
2022-12-15T02:54:09.573Z,-10.8
2022-12-15T02:57:09.737Z,-10.8
2022-12-15T03:00:09.578Z,-10.8
2022-12-15T03:03:10.897Z,-10.9
2022-12-15T03:06:09.546Z,-10.8
2022-12-15T03:09:09.535Z,-10.6
2022-12-15T03:12:09.524Z,-10.4
2022-12-15T03:15:09.702Z,-10.4
2022-12-15T03:18:09.561Z,-10.3
2022-12-15T03:21:09.834Z,-10.2
2022-12-15T03:24:09.576Z,-10.2
2022-12-15T03:27:09.544Z,-10.1
2022-12-15T03:30:09.647Z,-10.1
2022-12-15T03:33:09.507Z,-10
2022-12-15T03:36:09.542Z,-10
2022-12-15T03:39:09.551Z,-9.8
2022-12-15T03:42:09.530Z,-9.9
2022-12-15T03:45:09.557Z,-9.9
2022-12-15T03:48:09.561Z,-9.9
2022-12-15T03:51:09.506Z,-10
2022-12-15T03:54:09.611Z,-10
2022-12-15T03:57:09.586Z,-9.9
2022-12-15T04:00:09.573Z,-10
2022-12-15T04:03:10.456Z,-9.9
2022-12-15T04:06:09.569Z,-9.8
2022-12-15T04:09:09.528Z,-9.8
2022-12-15T04:12:09.515Z,-9.6
2022-12-15T04:15:09.579Z,-9.6
2022-12-15T04:18:09.533Z,-9.5
2022-12-15T04:21:09.557Z,-9.5
2022-12-15T04:24:09.552Z,-9.5
2022-12-15T04:27:09.613Z,-9.6
2022-12-15T04:30:09.594Z,-9.6
2022-12-15T04:33:09.556Z,-9.7
2022-12-15T04:36:09.596Z,-9.7
2022-12-15T04:39:09.515Z,-9.7
2022-12-15T04:42:09.817Z,-9.6
2022-12-15T04:45:09.531Z,-9.3
2022-12-15T04:48:09.528Z,-8.9
2022-12-15T04:51:09.497Z,-8.9
2022-12-15T04:54:09.686Z,-8.8
2022-12-15T04:57:09.525Z,-8.8
2022-12-15T05:00:09.696Z,-8.7
2022-12-15T05:03:12.415Z,-8.7
2022-12-15T05:06:09.498Z,-8.7
2022-12-15T05:09:09.764Z,-8.8
2022-12-15T05:12:09.623Z,-8.8
2022-12-15T05:15:09.592Z,-8.8
2022-12-15T05:18:09.515Z,-8.9
2022-12-15T05:21:09.500Z,-8.9
2022-12-15T05:24:09.523Z,-8.9
2022-12-15T05:27:09.735Z,-8.9
2022-12-15T05:30:09.582Z,-8.9
2022-12-15T05:33:09.588Z,-9
2022-12-15T05:36:09.535Z,-9
2022-12-15T05:39:09.576Z,-8.9
2022-12-15T05:42:09.762Z,-8.8
2022-12-15T05:45:09.559Z,-8.7
2022-12-15T05:48:09.526Z,-8.7
2022-12-15T05:51:09.543Z,-8.7
2022-12-15T05:54:09.573Z,-8.7
2022-12-15T05:57:09.507Z,-8.6
2022-12-15T06:00:09.562Z,-8.6
2022-12-15T06:03:10.067Z,-8.6
2022-12-15T06:06:09.598Z,-8.6
2022-12-15T06:09:09.498Z,-8.4
2022-12-15T06:12:09.537Z,-8.5
2022-12-15T06:15:09.563Z,-8.5
2022-12-15T06:18:09.535Z,-8.6
2022-12-15T06:21:09.588Z,-8.6
2022-12-15T06:24:09.622Z,-8.8
2022-12-15T06:27:09.621Z,-8.8
2022-12-15T06:30:09.574Z,-8.8
2022-12-15T06:33:09.568Z,-8.8
2022-12-15T06:36:09.517Z,-8.8
2022-12-15T06:39:09.659Z,-8.9
2022-12-15T06:42:09.539Z,-8.8
2022-12-15T06:45:09.629Z,-8.9
2022-12-15T06:48:10.834Z,-8.9
2022-12-15T06:51:17.662Z,-8.9
2022-12-15T06:54:09.547Z,-9
2022-12-15T06:57:09.599Z,-9.1
2022-12-15T07:00:09.772Z,-9
2022-12-15T07:03:11.360Z,-8.8
2022-12-15T07:06:09.578Z,-8.5
2022-12-15T07:09:09.727Z,-8.4
2022-12-15T07:12:09.577Z,-8.3
2022-12-15T07:15:09.557Z,-8.2
2022-12-15T07:18:09.549Z,-8
2022-12-15T07:21:09.516Z,-7.8
2022-12-15T07:24:12.823Z,-7.6
2022-12-15T07:27:09.560Z,-7.3
2022-12-15T07:30:10.264Z,-7.1
2022-12-15T07:33:10.174Z,-7.1
2022-12-15T07:36:09.581Z,-6.9
2022-12-15T07:39:11.452Z,-6.7
2022-12-15T07:42:09.575Z,-6.1
2022-12-15T07:45:09.861Z,-5.9
2022-12-15T07:48:09.603Z,-5.7
2022-12-15T07:51:26.454Z,-5.4
2022-12-15T07:54:09.653Z,-5.3
2022-12-15T07:57:09.654Z,-5.4
2022-12-15T08:00:09.845Z,-5.4
2022-12-15T08:03:10.440Z,-5.5
2022-12-15T08:06:13.437Z,-5.6
2022-12-15T08:09:09.735Z,-5.6
2022-12-15T08:12:09.563Z,-5.6
2022-12-15T08:15:09.642Z,-5.6
2022-12-15T08:18:09.643Z,-5.4
2022-12-15T08:21:09.560Z,-5.4
2022-12-15T08:24:09.717Z,-5.3
2022-12-15T08:27:09.654Z,-5.2
2022-12-15T08:30:09.636Z,-5.3
2022-12-15T08:33:09.613Z,-5.3
2022-12-15T08:36:09.480Z,-5.2
2022-12-15T08:39:09.520Z,-5.2
2022-12-15T08:42:09.572Z,-5.1
2022-12-15T08:45:09.556Z,-5.1
2022-12-15T08:48:09.553Z,-5
2022-12-15T08:51:09.504Z,-4.9
2022-12-15T08:54:09.582Z,-4.8
2022-12-15T08:57:09.547Z,-4.6
2022-12-15T09:00:09.656Z,-4.4
2022-12-15T09:03:09.468Z,-4.1
2022-12-15T09:06:09.575Z,-3.8
2022-12-15T09:09:09.536Z,-3.6
2022-12-15T09:12:09.625Z,-3.3
2022-12-15T09:15:09.557Z,-3.1
2022-12-15T09:18:09.665Z,-3.1
2022-12-15T09:21:09.740Z,-2.9
2022-12-15T09:24:09.978Z,-2.8
2022-12-15T09:27:09.634Z,-2.4
2022-12-15T09:30:09.767Z,-2.2
2022-12-15T09:33:09.574Z,-2.1
2022-12-15T09:36:09.753Z,-2
2022-12-15T09:39:09.666Z,-1.8
2022-12-15T09:42:09.669Z,-1.7
2022-12-15T09:45:10.360Z,-1.4
2022-12-15T09:48:09.658Z,-1.3
2022-12-15T09:51:09.575Z,-0.9
2022-12-15T09:54:11.408Z,-0.6
2022-12-15T09:57:09.672Z,-0.3
2022-12-15T10:00:09.906Z,0.1
2022-12-15T10:03:10.927Z,0.4
2022-12-15T10:06:37.498Z,0.7
2022-12-15T10:09:09.585Z,1.1
2022-12-15T10:12:09.687Z,1.4
2022-12-15T10:15:09.562Z,1.6
2022-12-15T10:18:09.678Z,1.9
2022-12-15T10:21:09.581Z,0.3
2022-12-15T10:24:09.890Z,0.9
2022-12-15T10:27:09.632Z,1.4
2022-12-15T10:30:10.562Z,1.8
2022-12-15T10:33:09.634Z,1.9
2022-12-15T10:36:09.732Z,2.1
2022-12-15T10:39:12.832Z,2.4
2022-12-15T10:42:09.676Z,2.6
2022-12-15T10:45:09.711Z,2.8
2022-12-15T10:48:09.590Z,2.7
2022-12-15T10:51:09.628Z,2.2
2022-12-15T10:54:09.547Z,1.9
2022-12-15T10:57:09.635Z,2.6
2022-12-15T11:00:09.738Z,2.7
2022-12-15T11:03:11.971Z,2.9
2022-12-15T11:06:09.620Z,2.9
2022-12-15T11:09:09.630Z,2.9
2022-12-15T11:12:14.381Z,2.8
2022-12-15T11:15:09.673Z,2.9
2022-12-15T11:18:09.673Z,2.9
2022-12-15T11:21:09.722Z,2.7
2022-12-15T11:24:09.627Z,2.8
2022-12-15T11:27:09.556Z,2.7
2022-12-15T11:30:09.845Z,2.5
2022-12-15T11:33:09.694Z,2.3
2022-12-15T11:36:09.768Z,2.3
2022-12-15T11:39:10.217Z,2.1
2022-12-15T11:42:09.673Z,1.8
2022-12-15T11:45:09.688Z,1.5
2022-12-15T11:48:09.672Z,1.4
2022-12-15T11:51:09.615Z,1.3
2022-12-15T11:54:09.711Z,1.2
2022-12-15T11:57:09.669Z,1.1
2022-12-15T12:00:09.740Z,0.9
2022-12-15T12:03:10.105Z,0.8
2022-12-15T12:06:09.708Z,0.6
2022-12-15T12:09:09.655Z,0.4
2022-12-15T12:12:09.614Z,0.3
2022-12-15T12:15:09.623Z,0.2
2022-12-15T12:18:09.613Z,0.1
2022-12-15T12:21:09.659Z,0.2
2022-12-15T12:24:10.120Z,0.2
2022-12-15T12:27:09.660Z,0.2
2022-12-15T12:30:09.870Z,0.3
2022-12-15T12:33:09.690Z,0.2
2022-12-15T12:36:09.916Z,0.1
2022-12-15T12:39:09.821Z,0.2
2022-12-15T12:42:09.709Z,0.1
2022-12-15T12:45:09.747Z,0.1
2022-12-15T12:48:09.889Z,0
2022-12-15T12:51:09.656Z,0.1
2022-12-15T12:54:09.672Z,0.2
2022-12-15T12:57:09.658Z,0.3
2022-12-15T13:00:09.699Z,0.3
2022-12-15T13:03:09.812Z,0.3
2022-12-15T13:06:09.598Z,0.1
2022-12-15T13:09:09.663Z,0
2022-12-15T13:15:09.639Z,1.9
2022-12-15T13:18:09.683Z,1.9
2022-12-15T13:21:09.573Z,1.9
2022-12-15T13:24:09.593Z,1.9
2022-12-15T13:27:09.622Z,1.8
2022-12-15T13:30:09.656Z,1.8
2022-12-15T13:33:09.699Z,1.8
2022-12-15T13:36:09.717Z,1.8
2022-12-15T13:39:09.660Z,1.8
2022-12-15T13:45:09.765Z,1.8
2022-12-15T13:48:09.676Z,1.8
2022-12-15T13:51:09.637Z,1.8
2022-12-15T13:54:09.725Z,1.8
2022-12-15T13:57:09.595Z,1.7
2022-12-15T14:00:09.658Z,1.6
2022-12-15T14:03:10.105Z,1.6
2022-12-15T14:06:09.615Z,1.6
2022-12-15T14:09:09.611Z,1.4
2022-12-15T14:12:09.636Z,1.4
2022-12-15T14:15:09.671Z,1.3
2022-12-15T14:18:09.598Z,1.4
2022-12-15T14:21:09.679Z,1.4
2022-12-15T14:27:09.650Z,1.2
2022-12-15T14:30:10.093Z,1.1
2022-12-15T14:33:09.637Z,0.9
2022-12-15T14:36:09.695Z,0.7
2022-12-15T14:39:09.658Z,0.5
2022-12-15T14:42:09.656Z,0.3
2022-12-15T14:45:10.212Z,0.1
2022-12-15T14:51:10.556Z,-0.3
2022-12-15T14:54:10.158Z,-0.4
2022-12-15T14:57:10.197Z,-0.7
2022-12-15T15:00:09.867Z,-0.9
2022-12-15T15:06:09.947Z,-1.1
2022-12-15T15:09:09.589Z,-1.3
2022-12-15T15:12:09.558Z,-1.4
2022-12-15T15:15:09.702Z,-1.6
2022-12-15T15:18:09.529Z,-1.8
2022-12-15T15:21:09.572Z,-1.9
2022-12-15T15:24:09.662Z,-1.9
2022-12-15T15:27:10.153Z,-2.1
2022-12-15T15:30:09.671Z,-2.2
2022-12-15T15:33:09.579Z,-2.4
2022-12-15T15:36:09.598Z,-2.5
2022-12-15T15:39:09.559Z,-2.6
2022-12-15T15:42:09.635Z,-2.6
2022-12-15T15:45:09.766Z,-2.7
2022-12-15T15:48:10.508Z,-2.8
2022-12-15T15:51:09.503Z,-2.8
2022-12-15T15:54:09.560Z,-2.9
2022-12-15T15:57:09.570Z,-2.9
2022-12-15T16:00:09.662Z,-2.9
2022-12-15T16:03:11.416Z,-3.1
2022-12-15T16:06:09.543Z,-3.2
2022-12-15T16:09:09.583Z,-3.2
2022-12-15T16:12:09.618Z,-3.1
2022-12-15T16:15:09.611Z,-3.1
2022-12-15T16:18:09.590Z,-3.2
2022-12-15T16:21:09.494Z,-3.3
2022-12-15T16:24:09.591Z,-3.5
2022-12-15T16:27:09.562Z,-3.6
2022-12-15T16:30:09.735Z,-3.7
2022-12-15T16:33:09.582Z,-3.7
2022-12-15T16:36:09.572Z,-3.8
2022-12-15T16:39:09.598Z,-3.8
2022-12-15T16:42:09.574Z,-3.8
2022-12-15T16:45:09.500Z,-3.9
2022-12-15T16:48:10.165Z,-4
2022-12-15T16:51:09.534Z,-3.9
2022-12-15T16:54:09.539Z,-4
2022-12-15T16:57:09.537Z,-4.2
2022-12-15T17:00:09.659Z,-4.3
2022-12-15T17:03:11.335Z,-4.3
2022-12-15T17:06:09.585Z,-4.3
2022-12-15T17:09:09.541Z,-4.3
2022-12-15T17:12:09.732Z,-4.3
2022-12-15T17:15:09.528Z,-4.3
2022-12-15T17:18:09.559Z,-4.3
2022-12-15T17:21:09.541Z,-4.3
2022-12-15T17:24:09.702Z,-4.3
2022-12-15T17:27:09.552Z,-4.2
2022-12-15T17:30:09.745Z,-4.2
2022-12-15T17:33:09.565Z,-4.3
2022-12-15T17:36:09.517Z,-4.3
2022-12-15T17:39:09.607Z,-4.4
2022-12-15T17:42:12.175Z,-4.6
2022-12-15T17:45:10.254Z,-4.8
2022-12-15T17:48:09.549Z,-3.7
2022-12-15T17:51:09.536Z,-3.8
2022-12-15T17:54:09.529Z,-4.4
2022-12-15T17:57:09.532Z,-4.8
2022-12-15T18:00:09.739Z,-4.9
2022-12-15T18:03:11.203Z,-5.1
2022-12-15T18:06:09.592Z,-5.2
2022-12-15T18:09:09.515Z,-5.3
2022-12-15T18:12:09.624Z,-5.4
2022-12-15T18:15:09.537Z,-5.4
2022-12-15T18:18:09.535Z,-5.6
2022-12-15T18:21:09.546Z,-5.6
2022-12-15T18:24:10.059Z,-5.6
2022-12-15T18:27:09.575Z,-5.6
2022-12-15T18:30:09.783Z,-5.6
2022-12-15T18:33:09.567Z,-5.6
2022-12-15T18:36:09.524Z,-5.6
2022-12-15T18:39:09.598Z,-5.5
2022-12-15T18:42:09.541Z,-5.5
2022-12-15T18:45:09.675Z,-5.4
2022-12-15T18:48:09.614Z,-5.5
2022-12-15T18:51:09.485Z,-5.7
2022-12-15T18:54:09.544Z,-5.8
2022-12-15T18:57:09.510Z,-5.9
2022-12-15T19:00:09.767Z,-5.9
2022-12-15T19:03:10.493Z,-5.9
2022-12-15T19:06:09.539Z,-6
2022-12-15T19:09:09.453Z,-6.1
2022-12-15T19:12:09.553Z,-6.1
2022-12-15T19:15:09.561Z,-6.2
2022-12-15T19:18:10.015Z,-6.2
2022-12-15T19:21:09.552Z,-6.1
2022-12-15T19:24:09.526Z,-6.1
2022-12-15T19:27:09.592Z,-6.1
2022-12-15T19:30:09.699Z,-6.1
2022-12-15T19:33:09.641Z,-6.1
2022-12-15T19:36:09.537Z,-6.1
2022-12-15T19:39:09.540Z,-6.3
2022-12-15T19:42:15.975Z,-6.3
2022-12-15T19:45:09.548Z,-6.3
2022-12-15T19:48:09.554Z,-6.4
2022-12-15T19:51:09.539Z,-6.6
2022-12-15T19:54:09.522Z,-6.6
2022-12-15T19:57:09.540Z,-6.6
2022-12-15T20:00:09.623Z,-6.6
2022-12-15T20:03:10.323Z,-6.7
2022-12-15T20:06:09.573Z,-6.7
2022-12-15T20:09:09.550Z,-6.7
2022-12-15T20:12:09.511Z,-6.6
2022-12-15T20:15:16.239Z,-6.7
2022-12-15T20:18:09.559Z,-6.7
2022-12-15T20:21:09.543Z,-6.8
2022-12-15T20:24:09.676Z,-6.8
2022-12-15T20:27:16.332Z,-6.8
2022-12-15T20:30:09.582Z,-6.7
2022-12-15T20:33:09.566Z,-6.9
2022-12-15T20:36:09.582Z,-6.9
2022-12-15T20:39:09.571Z,-6.9
2022-12-15T20:42:09.576Z,-6.9
2022-12-15T20:45:09.518Z,-7.1
2022-12-15T20:48:09.563Z,-7.2
2022-12-15T20:51:18.068Z,-7.3
2022-12-15T20:54:09.595Z,-7.2
2022-12-15T20:57:09.570Z,-7.1
2022-12-15T21:00:09.658Z,-7
2022-12-15T21:03:10.660Z,-7
2022-12-15T21:06:09.580Z,-7
2022-12-15T21:09:09.549Z,-7
2022-12-15T21:12:18.040Z,-6.9
2022-12-15T21:15:09.631Z,-6.8
2022-12-15T21:21:10.304Z,-6.7
2022-12-15T21:24:10.003Z,-6.7
2022-12-15T21:27:09.926Z,-6.8
2022-12-15T21:30:09.891Z,-6.9
2022-12-15T21:33:09.529Z,-7.1
2022-12-15T21:36:09.615Z,-7.3
2022-12-15T21:39:09.517Z,-7.2
2022-12-15T21:42:10.366Z,-7.3
2022-12-15T21:45:09.906Z,-7.4
2022-12-15T21:48:09.737Z,-7.4
2022-12-15T21:51:10.425Z,-7.4
2022-12-15T21:54:09.603Z,-7.4
2022-12-15T21:57:10.200Z,-7.4
2022-12-15T22:00:10.222Z,-7.6
2022-12-15T22:03:10.164Z,-7.5
2022-12-15T22:06:10.338Z,-7.6
2022-12-15T22:09:09.507Z,-7.6
2022-12-15T22:12:09.551Z,-7.6
2022-12-15T22:15:10.236Z,-7.6
2022-12-15T22:18:09.649Z,-7.6
2022-12-15T22:21:09.488Z,-7.7
2022-12-15T22:24:09.574Z,-7.7
2022-12-15T22:27:09.547Z,-7.8
2022-12-15T22:30:10.244Z,-7.9
2022-12-15T22:33:09.519Z,-7.9
2022-12-15T22:36:09.542Z,-7.9
2022-12-15T22:39:17.476Z,-7.9
2022-12-15T22:42:10.447Z,-7.7
2022-12-15T22:45:09.546Z,-7.6
2022-12-15T22:48:10.420Z,-7.4
2022-12-15T22:51:09.532Z,-7.4
2022-12-15T22:54:09.552Z,-7.4
2022-12-15T22:57:09.512Z,-7.4
2022-12-15T23:00:10.423Z,-7.5
2022-12-15T23:03:09.555Z,-7.6
2022-12-15T23:06:09.553Z,-7.6
2022-12-15T23:09:09.668Z,-7.5
2022-12-15T23:12:09.570Z,-7.6
2022-12-15T23:15:09.574Z,-7.7
2022-12-15T23:18:10.335Z,-7.8
2022-12-15T23:21:10.325Z,-7.9
2022-12-15T23:24:10.294Z,-7.9
2022-12-15T23:27:09.956Z,-8
2022-12-15T23:30:09.545Z,-8
2022-12-15T23:33:09.506Z,-8
2022-12-15T23:36:10.599Z,-8
2022-12-15T23:39:10.690Z,-8.1
2022-12-15T23:42:10.184Z,-7.9
2022-12-15T23:45:10.606Z,-8
2022-12-15T23:48:09.501Z,-8.3
2022-12-15T23:51:10.522Z,-8.3
2022-12-15T23:54:09.594Z,-8.4
2022-12-15T23:57:10.408Z,-8.4
